Time;durP1;ratioP1;P1;durP2;ratioP2;P2;SDS_P1;SDS_P2;PMS_P1;PMS_P2;Temp;Humidity;BMP_temperature;BMP_pressure;BME280_temperature;BME280_humidity;BME280_pressure;Samples;Min_cycle;Max_cycle;Signal;HPM_P1;HPM_P2
2022/07/10 00:00:01;;;;;;;6.27;5.60;;;19.20;63.10;;;;;;4875589;29;20466;-81
2022/07/10 00:02:28;;;;;;;6.53;5.57;;;19.20;63.30;;;;;;4871755;29;20486;-83
2022/07/10 00:04:55;;;;;;;7.00;6.23;;;19.20;63.40;;;;;;4872148;29;20529;-82
2022/07/10 00:07:21;;;;;;;5.97;5.47;;;19.20;63.50;;;;;;4878384;29;20460;-83
2022/07/10 00:09:49;;;;;;;5.73;5.23;;;19.10;64.30;;;;;;4877693;29;20477;-83
2022/07/10 00:12:16;;;;;;;5.70;5.30;;;19.10;64.50;;;;;;4876180;29;20479;-82
2022/07/10 00:14:43;;;;;;;6.90;6.30;;;19.10;64.50;;;;;;4871060;29;20520;-80
2022/07/10 00:17:10;;;;;;;5.93;5.47;;;19.00;64.40;;;;;;4874632;29;20559;-82
2022/07/10 00:19:37;;;;;;;6.37;5.83;;;19.00;65.20;;;;;;4879958;29;20919;-82
2022/07/10 00:22:05;;;;;;;6.07;5.57;;;18.90;66.80;;;;;;4877414;29;20819;-81
2022/07/10 00:24:31;;;;;;;6.37;5.87;;;18.80;66.70;;;;;;4873421;29;20452;-83
2022/07/10 00:27:00;;;;;;;6.20;5.73;;;18.80;66.70;;;;;;4880984;29;20548;-82
2022/07/10 00:29:27;;;;;;;6.10;5.50;;;18.70;67.00;;;;;;4875311;29;20431;-81
2022/07/10 00:31:54;;;;;;;5.80;5.40;;;18.70;67.70;;;;;;4867973;29;20673;-82
2022/07/10 00:34:21;;;;;;;6.20;5.70;;;18.60;68.60;;;;;;4870266;29;20512;-83
2022/07/10 00:36:47;;;;;;;8.47;6.27;;;18.60;69.20;;;;;;4867894;29;20522;-81
2022/07/10 00:39:14;;;;;;;6.73;6.20;;;18.60;69.40;;;;;;4868821;29;20477;-81
2022/07/10 00:41:41;;;;;;;6.47;5.80;;;18.60;68.70;;;;;;4873748;29;20463;-82
2022/07/10 00:44:10;;;;;;;6.83;6.23;;;18.60;68.60;;;;;;4880540;29;20441;-83
2022/07/10 00:46:36;;;;;;;6.10;5.60;;;18.60;69.20;;;;;;4880291;29;20444;-81
2022/07/10 00:49:03;;;;;;;7.40;6.80;;;18.70;68.70;;;;;;4880475;29;20482;-80
2022/07/10 00:51:33;;;;;;;6.70;6.20;;;18.70;68.00;;;;;;4877490;29;20452;-82
2022/07/10 00:54:01;;;;;;;7.30;6.77;;;18.70;66.90;;;;;;4879834;29;20466;-81
2022/07/10 00:56:28;;;;;;;7.03;6.33;;;18.70;67.80;;;;;;4880341;29;20465;-82
2022/07/10 00:58:56;;;;;;;7.60;6.90;;;18.60;68.10;;;;;;4881215;29;20509;-82
2022/07/10 01:01:24;;;;;;;7.27;6.47;;;18.50;69.20;;;;;;4882093;29;20539;-83
2022/07/10 01:03:51;;;;;;;6.90;6.27;;;18.50;69.50;;;;;;4875317;29;20507;-82
2022/07/10 01:06:18;;;;;;;6.53;6.03;;;18.30;69.50;;;;;;4879742;29;20500;-81
2022/07/10 01:08:46;;;;;;;7.57;6.43;;;18.20;70.70;;;;;;4874596;29;20473;-80
2022/07/10 01:11:15;;;;;;;8.03;6.60;;;18.10;70.30;;;;;;4872446;29;20560;-82
2022/07/10 01:13:43;;;;;;;7.10;6.37;;;18.10;70.50;;;;;;4877044;29;20457;-82
2022/07/10 01:16:11;;;;;;;6.33;5.73;;;18.10;69.70;;;;;;4880261;29;20490;-82
2022/07/10 01:18:39;;;;;;;5.60;5.10;;;18.00;69.90;;;;;;4879795;29;20530;-82
2022/07/10 01:21:23;;;;;;;5.73;5.30;;;17.90;68.40;;;;;;4881039;29;20490;-82
2022/07/10 01:23:50;;;;;;;5.70;5.10;;;17.80;67.30;;;;;;4880585;29;20799;-82
2022/07/10 01:26:17;;;;;;;5.03;4.63;;;17.80;67.40;;;;;;4870061;29;20464;-82
2022/07/10 01:28:44;;;;;;;8.03;4.37;;;17.70;67.40;;;;;;4866876;29;20987;-82
2022/07/10 01:31:11;;;;;;;5.97;5.10;;;17.70;66.90;;;;;;4870384;29;20497;-82
2022/07/10 01:33:38;;;;;;;5.23;4.70;;;17.70;65.70;;;;;;4871670;29;20490;-82
2022/07/10 01:36:08;;;;;;;5.80;4.50;;;17.60;65.60;;;;;;4871561;29;20568;-82
2022/07/10 01:38:35;;;;;;;4.90;4.50;;;17.60;65.60;;;;;;4870995;29;20998;-82
2022/07/10 01:41:02;;;;;;;4.73;4.33;;;17.50;66.00;;;;;;4871189;29;20488;-82
2022/07/10 01:43:28;;;;;;;8.10;4.67;;;17.40;67.00;;;;;;4871059;29;20467;-83
2022/07/10 01:45:55;;;;;;;5.40;4.23;;;17.40;67.10;;;;;;4871805;29;20474;-82
2022/07/10 01:48:22;;;;;;;4.83;4.43;;;17.30;67.70;;;;;;4871106;29;20441;-82
2022/07/10 01:50:49;;;;;;;4.20;3.90;;;17.30;67.00;;;;;;4878734;29;20462;-83
2022/07/10 01:53:17;;;;;;;5.00;4.50;;;17.20;67.10;;;;;;4864548;29;20430;-84
2022/07/10 01:55:44;;;;;;;4.60;4.20;;;17.10;67.80;;;;;;4868465;29;20468;-82
2022/07/10 01:58:11;;;;;;;4.80;3.70;;;17.10;67.30;;;;;;4877596;29;20989;-81
2022/07/10 02:00:38;;;;;;;4.27;3.97;;;17.10;67.20;;;;;;4876445;29;20475;-84
2022/07/10 02:05:49;;;;;;;4.50;3.63;;;17.00;67.10;;;;;;4878140;29;20448;-83
2022/07/10 02:08:18;;;;;;;3.83;3.30;;;17.00;66.60;;;;;;4873778;29;20440;-82
2022/07/10 02:10:45;;;;;;;3.87;3.57;;;17.00;66.30;;;;;;4868958;29;20483;-82
2022/07/10 02:13:14;;;;;;;4.10;3.70;;;17.00;65.70;;;;;;4877697;29;20421;-83
2022/07/10 02:15:41;;;;;;;8.00;3.47;;;16.90;65.80;;;;;;4878195;29;20471;-82
2022/07/10 02:18:08;;;;;;;4.40;3.90;;;16.90;65.90;;;;;;4878083;29;20493;-81
2022/07/10 02:20:36;;;;;;;3.80;3.43;;;16.80;66.00;;;;;;4875234;29;20458;-82
2022/07/10 02:23:03;;;;;;;3.87;3.30;;;16.80;65.00;;;;;;4868415;29;20464;-82
2022/07/10 02:25:31;;;;;;;6.87;3.80;;;16.70;65.50;;;;;;4848869;29;20549;-83
2022/07/10 02:27:58;;;;;;;7.43;3.27;;;16.70;66.00;;;;;;4849523;29;20465;-84
2022/07/10 02:30:25;;;;;;;4.40;3.20;;;16.60;66.10;;;;;;4876079;29;20456;-84
2022/07/10 02:32:52;;;;;;;4.63;3.40;;;16.50;66.40;;;;;;4883304;29;20424;-84
2022/07/10 02:35:19;;;;;;;3.23;2.97;;;16.50;66.40;;;;;;4883319;29;20497;-85
2022/07/10 02:37:46;;;;;;;3.93;3.20;;;16.50;66.70;;;;;;4883120;29;20442;-84
2022/07/10 02:40:13;;;;;;;4.43;3.03;;;16.40;66.60;;;;;;4883427;29;20412;-84
2022/07/10 02:42:41;;;;;;;3.13;2.83;;;16.40;66.90;;;;;;4883514;29;20425;-84
2022/07/10 02:45:12;;;;;;;4.23;3.00;;;16.30;67.30;;;;;;4883351;29;20420;-85
2022/07/10 02:47:38;;;;;;;4.27;2.80;;;16.20;67.30;;;;;;4883849;29;20453;-83
2022/07/10 02:50:06;;;;;;;7.33;3.40;;;16.20;67.20;;;;;;4883333;29;20498;-85
2022/07/10 02:52:33;;;;;;;5.27;3.50;;;16.20;67.50;;;;;;4883436;29;20446;-84
2022/07/10 02:55:00;;;;;;;5.80;3.03;;;16.10;68.10;;;;;;4880391;29;20547;-83
2022/07/10 02:57:27;;;;;;;3.60;3.00;;;16.10;68.00;;;;;;4876606;29;20493;-84
2022/07/10 02:59:57;;;;;;;3.70;2.90;;;16.10;67.80;;;;;;4877596;29;20447;-84
2022/07/10 03:02:24;;;;;;;4.43;2.87;;;16.00;68.00;;;;;;4878057;29;20516;-85
2022/07/10 03:04:51;;;;;;;3.27;2.43;;;16.00;67.70;;;;;;4884188;29;20441;-84
2022/07/10 03:07:18;;;;;;;3.03;2.73;;;16.00;67.30;;;;;;4885760;29;20412;-84
2022/07/10 03:09:45;;;;;;;5.63;3.27;;;15.90;67.50;;;;;;4883182;29;20530;-84
2022/07/10 03:12:12;;;;;;;4.60;3.00;;;15.90;67.90;;;;;;4881960;29;20528;-84
2022/07/10 03:14:39;;;;;;;5.27;2.77;;;15.90;67.90;;;;;;4881070;29;20493;-84
2022/07/10 03:17:07;;;;;;;3.00;2.80;;;15.90;67.70;;;;;;4882161;29;20601;-83
2022/07/10 03:19:34;;;;;;;4.07;2.70;;;15.90;67.90;;;;;;4880890;29;20303;-82
2022/07/10 03:22:03;;;;;;;2.83;2.63;;;15.80;68.10;;;;;;4880125;29;20553;-82
2022/07/10 03:24:30;;;;;;;4.07;2.87;;;15.80;68.40;;;;;;4860749;29;20454;-82
2022/07/10 03:26:57;;;;;;;4.83;3.00;;;15.80;68.70;;;;;;4877595;29;20462;-83
2022/07/10 03:29:24;;;;;;;4.37;3.10;;;15.70;68.90;;;;;;4884362;29;20800;-84
2022/07/10 03:31:51;;;;;;;10.43;2.80;;;15.70;68.90;;;;;;4903605;24;20487;-79
2022/07/10 03:34:19;;;;;;;3.57;2.93;;;15.70;69.20;;;;;;4881638;29;20504;-80
2022/07/10 03:36:46;;;;;;;3.10;2.80;;;15.70;69.20;;;;;;4881873;29;20470;-80
2022/07/10 03:39:13;;;;;;;2.90;2.37;;;15.70;69.00;;;;;;4869550;29;20506;-80
2022/07/10 03:41:39;;;;;;;4.10;3.63;;;15.70;68.90;;;;;;4866701;29;20488;-79
2022/07/10 03:44:06;;;;;;;4.90;2.60;;;15.70;69.10;;;;;;4870854;29;20557;-79
2022/07/10 03:46:33;;;;;;;2.67;2.13;;;15.80;68.60;;;;;;4870685;29;20530;-80
2022/07/10 03:49:00;;;;;;;2.87;2.60;;;15.80;68.30;;;;;;4878672;29;20477;-80
2022/07/10 03:51:28;;;;;;;4.93;2.80;;;15.80;67.90;;;;;;4886303;29;20458;-81
2022/07/10 03:53:55;;;;;;;5.95;2.60;;;15.80;67.70;;;;;;4880307;29;20818;-79
2022/07/10 03:59:06;;;;;;;4.70;2.50;;;15.70;67.60;;;;;;4866963;29;20437;-79
2022/07/10 04:01:33;;;;;;;5.83;3.20;;;15.70;67.80;;;;;;4865413;29;21000;-80
2022/07/10 04:04:00;;;;;;;2.50;2.30;;;15.80;67.70;;;;;;4864656;29;20536;-81
2022/07/10 04:06:29;;;;;;;3.07;2.77;;;15.70;68.10;;;;;;4865719;29;20450;-80
2022/07/10 04:08:56;;;;;;;3.73;2.70;;;15.70;67.80;;;;;;4864446;29;20470;-78
2022/07/10 04:11:23;;;;;;;4.17;2.57;;;15.80;67.70;;;;;;4856573;29;20494;-79
2022/07/10 04:13:50;;;;;;;4.23;2.47;;;15.80;67.10;;;;;;4845520;29;20467;-78
2022/07/10 04:16:17;;;;;;;4.77;2.40;;;15.90;65.60;;;;;;4845293;29;20560;-80
2022/07/10 04:18:44;;;;;;;2.83;2.50;;;16.00;65.50;;;;;;4844859;29;20462;-79
2022/07/10 04:21:10;;;;;;;3.00;2.33;;;16.10;64.80;;;;;;4854899;29;20888;-79
2022/07/10 04:23:39;;;;;;;2.83;2.10;;;16.10;64.50;;;;;;4864935;29;20466;-80
2022/07/10 04:26:06;;;;;;;2.83;2.57;;;16.10;64.20;;;;;;4865341;29;20515;-79
2022/07/10 04:28:32;;;;;;;6.27;2.50;;;16.20;64.30;;;;;;4862843;29;20887;-79
2022/07/10 04:30:59;;;;;;;3.40;2.23;;;16.20;64.30;;;;;;4850415;29;20500;-79
2022/07/10 04:33:27;;;;;;;6.17;2.77;;;16.30;62.70;;;;;;4850180;29;20518;-80
2022/07/10 04:35:54;;;;;;;3.50;2.17;;;16.40;62.20;;;;;;4850906;29;20523;-79
2022/07/10 04:38:21;;;;;;;3.10;2.10;;;16.30;61.70;;;;;;4853695;29;20474;-79
2022/07/10 04:40:49;;;;;;;2.93;2.23;;;16.30;61.60;;;;;;4866875;29;20467;-79
2022/07/10 04:43:16;;;;;;;3.37;2.00;;;16.30;61.20;;;;;;4872214;29;20556;-80
2022/07/10 04:45:43;;;;;;;3.10;2.00;;;16.40;60.80;;;;;;4877308;29;20440;-80
2022/07/10 04:48:10;;;;;;;2.00;1.90;;;16.40;60.40;;;;;;4875109;29;20462;-80
2022/07/10 04:50:37;;;;;;;4.67;2.40;;;16.30;60.80;;;;;;4869929;29;20470;-81
2022/07/10 04:53:04;;;;;;;3.10;2.13;;;16.30;61.30;;;;;;4864756;29;20458;-79
2022/07/10 04:55:31;;;;;;;3.60;2.20;;;16.20;61.30;;;;;;4847592;29;20566;-79
2022/07/10 04:57:59;;;;;;;2.57;2.37;;;16.20;61.50;;;;;;4848182;29;20244;-80
2022/07/10 05:00:26;;;;;;;2.73;2.53;;;16.30;61.30;;;;;;4846613;29;20972;-80
2022/07/10 05:02:53;;;;;;;4.33;2.10;;;16.40;60.80;;;;;;4847758;29;20478;-79
2022/07/10 05:05:20;;;;;;;2.40;2.20;;;16.70;59.10;;;;;;4847398;29;20451;-80
2022/07/10 05:07:47;;;;;;;3.90;1.87;;;17.30;56.10;;;;;;4846169;29;20463;-80
2022/07/10 05:10:14;;;;;;;3.33;2.00;;;17.50;54.20;;;;;;4857425;29;20422;-80
2022/07/10 05:12:40;;;;;;;1.93;1.57;;;17.50;53.30;;;;;;4853784;29;20595;-82
2022/07/10 05:15:10;;;;;;;2.47;1.70;;;17.50;53.70;;;;;;4868508;29;20465;-79
2022/07/10 05:17:37;;;;;;;3.67;2.17;;;17.50;53.00;;;;;;4856886;29;20570;-80
2022/07/10 05:20:05;;;;;;;3.93;2.00;;;17.40;53.60;;;;;;4847178;29;20855;-80
2022/07/10 05:22:31;;;;;;;8.57;2.70;;;17.30;53.60;;;;;;4844523;29;20477;-80
2022/07/10 05:24:58;;;;;;;4.00;2.13;;;17.30;53.40;;;;;;4855909;29;20493;-80
2022/07/10 05:27:26;;;;;;;1.97;1.60;;;17.60;53.20;;;;;;4865825;29;20874;-79
2022/07/10 05:29:53;;;;;;;6.33;2.03;;;17.80;52.10;;;;;;4868218;29;20875;-80
2022/07/10 05:32:21;;;;;;;3.07;1.90;;;18.30;49.50;;;;;;4876876;29;20553;-80
2022/07/10 05:34:49;;;;;;;5.20;1.90;;;18.20;49.50;;;;;;4876472;29;20556;-80
2022/07/10 05:37:16;;;;;;;8.73;4.23;;;18.20;49.20;;;;;;4873297;29;20489;-80
2022/07/10 05:39:43;;;;;;;7.07;2.30;;;18.10;49.00;;;;;;4855470;29;20553;-80
2022/07/10 05:42:09;;;;;;;1.93;1.67;;;18.20;48.30;;;;;;4834464;29;20491;-80
2022/07/10 05:44:37;;;;;;;2.33;1.90;;;18.30;48.00;;;;;;4837534;29;20550;-80
2022/07/10 05:47:05;;;;;;;3.40;2.00;;;18.30;47.30;;;;;;4857540;29;20487;-80
2022/07/10 05:49:33;;;;;;;2.73;1.90;;;18.20;47.20;;;;;;4854960;29;20455;-80
2022/07/10 05:52:00;;;;;;;4.93;2.17;;;18.30;47.30;;;;;;4864726;29;20483;-79
2022/07/10 05:54:27;;;;;;;2.43;2.10;;;18.40;47.30;;;;;;4867877;29;20518;-79
2022/07/10 05:56:54;;;;;;;4.80;2.13;;;18.60;46.20;;;;;;4866541;29;20867;-80
2022/07/10 05:59:21;;;;;;;2.20;1.90;;;18.50;47.50;;;;;;4872020;29;20478;-80
2022/07/10 06:01:48;;;;;;;2.33;2.13;;;18.60;46.00;;;;;;4869400;29;20846;-79
2022/07/10 06:04:15;;;;;;;3.70;2.20;;;18.40;46.30;;;;;;4858481;29;20978;-80
2022/07/10 06:06:43;;;;;;;7.50;2.30;;;17.90;46.90;;;;;;4859057;29;20538;-79
2022/07/10 06:09:10;;;;;;;2.30;1.80;;;17.90;47.70;;;;;;4860574;29;20451;-80
2022/07/10 06:11:37;;;;;;;3.50;2.10;;;18.00;47.70;;;;;;4859567;29;20490;-80
2022/07/10 06:14:03;;;;;;;9.97;2.00;;;18.30;47.30;;;;;;4853859;29;20465;-79
2022/07/10 06:16:30;;;;;;;2.27;2.07;;;18.50;45.90;;;;;;4866770;29;20565;-79
2022/07/10 06:18:57;;;;;;;4.60;2.23;;;18.60;45.70;;;;;;4856639;29;20490;-80
2022/07/10 06:21:24;;;;;;;4.87;2.13;;;18.40;45.90;;;;;;4846201;29;20491;-79
2022/07/10 06:23:52;;;;;;;3.60;1.90;;;18.00;47.00;;;;;;4850359;29;20500;-80
2022/07/10 06:26:19;;;;;;;4.97;2.33;;;17.80;46.80;;;;;;4847053;29;20438;-79
2022/07/10 06:28:46;;;;;;;4.30;2.50;;;17.90;46.90;;;;;;4844684;29;20526;-80
2022/07/10 06:31:13;;;;;;;4.40;2.07;;;17.90;46.90;;;;;;4844900;29;20582;-80
2022/07/10 06:33:40;;;;;;;4.60;2.13;;;17.70;47.60;;;;;;4852032;29;20466;-79
2022/07/10 06:36:07;;;;;;;3.80;2.23;;;17.70;48.30;;;;;;4870484;29;20518;-80
2022/07/10 06:38:34;;;;;;;4.63;1.90;;;17.60;48.70;;;;;;4873936;29;20465;-79
2022/07/10 06:41:03;;;;;;;3.10;2.20;;;17.80;48.00;;;;;;4883109;29;20466;-82
2022/07/10 06:43:29;;;;;;;6.80;2.53;;;18.00;47.00;;;;;;4865153;29;20534;-80
2022/07/10 06:45:57;;;;;;;2.63;2.10;;;18.40;46.90;;;;;;4864301;29;20486;-80
2022/07/10 06:48:25;;;;;;;2.67;2.17;;;18.30;46.10;;;;;;4858369;29;20494;-80
2022/07/10 06:50:51;;;;;;;3.10;1.90;;;18.40;45.60;;;;;;4863775;29;20550;-81
2022/07/10 06:53:23;;;;;;;5.53;2.30;;;18.20;46.30;;;;;;4864017;29;20557;-80
2022/07/10 06:55:50;;;;;;;4.63;2.10;;;18.00;46.00;;;;;;4864001;29;20515;-81
2022/07/10 06:58:19;;;;;;;2.33;2.07;;;17.70;46.40;;;;;;4879561;29;20488;-80
2022/07/10 07:00:46;;;;;;;3.53;2.03;;;17.50;46.50;;;;;;4877465;29;20477;-81
2022/07/10 07:03:12;;;;;;;2.33;1.77;;;17.50;46.50;;;;;;4875363;29;20477;-80
2022/07/10 07:05:39;;;;;;;3.03;2.03;;;17.60;47.30;;;;;;4864365;29;20505;-79
2022/07/10 07:08:06;;;;;;;5.80;2.67;;;17.80;45.50;;;;;;4858731;29;20448;-79
2022/07/10 07:10:33;;;;;;;2.37;2.10;;;17.80;45.30;;;;;;4851667;29;20458;-79
2022/07/10 07:13:02;;;;;;;4.17;2.20;;;17.80;45.20;;;;;;4848622;29;20542;-79
2022/07/10 07:15:31;;;;;;;4.70;3.47;;;17.70;44.80;;;;;;4849483;29;20470;-79
2022/07/10 07:18:07;;;;;;;7.27;2.20;;;17.70;45.00;;;;;;4851640;29;20574;-79
2022/07/10 07:23:19;;;;;;;5.60;1.93;;;17.70;45.30;;;;;;4847303;29;20458;-79
2022/07/10 07:25:47;;;;;;;6.90;2.30;;;17.70;45.40;;;;;;4848022;29;20477;-79
2022/07/10 07:28:16;;;;;;;3.57;2.20;;;17.60;45.00;;;;;;4849614;29;20459;-79
2022/07/10 07:30:45;;;;;;;5.40;1.90;;;17.60;44.50;;;;;;4849329;29;20486;-78
2022/07/10 07:33:12;;;;;;;3.07;1.83;;;17.70;44.40;;;;;;4868485;29;20467;-79
2022/07/10 07:35:39;;;;;;;4.53;2.60;;;17.60;44.60;;;;;;4871613;29;20508;-79
2022/07/10 07:38:08;;;;;;;2.50;2.30;;;17.60;44.80;;;;;;4861278;29;20485;-80
2022/07/10 07:40:37;;;;;;;4.80;1.70;;;17.60;44.90;;;;;;4860161;29;20824;-80
2022/07/10 07:43:04;;;;;;;4.40;2.20;;;17.70;45.10;;;;;;4861542;29;20561;-81
2022/07/10 07:45:31;;;;;;;4.53;2.20;;;17.90;43.90;;;;;;4861611;29;20530;-80
2022/07/10 07:48:01;;;;;;;3.30;1.73;;;18.20;42.20;;;;;;4864995;29;20905;-81
2022/07/10 07:50:31;;;;;;;3.43;2.07;;;18.50;40.90;;;;;;4866121;29;20490;-81
2022/07/10 07:52:59;;;;;;;1.97;1.87;;;18.50;40.90;;;;;;4882398;29;20428;-80
2022/07/10 07:55:26;;;;;;;3.37;1.73;;;18.80;40.40;;;;;;4883176;29;20536;-82
2022/07/10 07:57:54;;;;;;;3.37;1.93;;;19.00;38.50;;;;;;4866024;29;20541;-81
2022/07/10 08:00:23;;;;;;;4.53;1.67;;;19.20;38.10;;;;;;4864256;29;20466;-80
2022/07/10 08:02:50;;;;;;;2.97;1.70;;;18.90;37.80;;;;;;4871371;29;20463;-81
2022/07/10 08:05:19;;;;;;;2.67;1.53;;;19.00;37.90;;;;;;4867762;29;20443;-81
2022/07/10 08:07:48;;;;;;;2.37;1.50;;;19.10;38.10;;;;;;4860897;29;20463;-80
2022/07/10 08:10:17;;;;;;;1.97;1.67;;;19.30;37.30;;;;;;4860055;29;20440;-81
2022/07/10 08:12:46;;;;;;;2.50;1.63;;;19.30;36.80;;;;;;4859041;29;20486;-82
2022/07/10 08:15:14;;;;;;;4.10;1.80;;;19.10;37.90;;;;;;4859720;29;20466;-79
2022/07/10 08:17:41;;;;;;;3.17;1.60;;;19.20;37.10;;;;;;4859640;29;20483;-81
2022/07/10 08:20:11;;;;;;;3.37;1.57;;;19.20;36.70;;;;;;4860640;29;20495;-81
2022/07/10 08:22:40;;;;;;;3.40;1.57;;;19.10;36.90;;;;;;4857381;29;20577;-81
2022/07/10 08:25:07;;;;;;;2.30;1.90;;;19.30;36.70;;;;;;4864319;29;20986;-80
2022/07/10 08:27:34;;;;;;;2.17;1.00;;;19.20;36.30;;;;;;4860574;29;20459;-81
2022/07/10 08:30:01;;;;;;;3.83;1.40;;;18.70;37.60;;;;;;4845029;29;20479;-82
2022/07/10 08:32:29;;;;;;;9.53;2.07;;;18.90;37.10;;;;;;4863045;29;20512;-81
2022/07/10 08:34:55;;;;;;;1.83;1.30;;;18.50;37.40;;;;;;4873284;29;20530;-81
2022/07/10 08:37:22;;;;;;;3.40;1.37;;;18.60;37.50;;;;;;4870865;29;20496;-81
2022/07/10 08:39:51;;;;;;;1.73;1.30;;;18.50;37.40;;;;;;4860355;29;20459;-81
2022/07/10 08:42:19;;;;;;;1.70;1.20;;;18.70;37.60;;;;;;4862697;29;20463;-80
2022/07/10 08:44:46;;;;;;;2.20;1.43;;;18.90;35.70;;;;;;4860813;29;20473;-81
2022/07/10 08:47:14;;;;;;;4.77;1.47;;;19.40;34.40;;;;;;4864107;29;20438;-79
2022/07/10 08:49:47;;;;;;;2.00;1.60;;;19.60;33.30;;;;;;4865694;29;20462;-82
2022/07/10 08:52:27;;;;;;;8.60;2.50;;;19.20;34.20;;;;;;4865655;29;20486;-80
2022/07/10 08:54:56;;;;;;;2.50;1.47;;;19.30;34.60;;;;;;4885053;29;20469;-81
2022/07/10 08:57:24;;;;;;;3.83;1.20;;;19.20;34.50;;;;;;4885019;29;20514;-80
2022/07/10 08:59:51;;;;;;;2.77;1.47;;;19.20;33.80;;;;;;4875421;29;20480;-82
2022/07/10 09:02:18;;;;;;;2.60;1.40;;;18.80;34.60;;;;;;4865478;29;20467;-80
2022/07/10 09:04:45;;;;;;;4.13;1.30;;;18.80;34.40;;;;;;4866062;29;20488;-80
2022/07/10 09:07:12;;;;;;;6.07;1.47;;;19.20;34.30;;;;;;4866559;29;20451;-81
2022/07/10 09:09:53;;;;;;;2.30;1.20;;;19.60;33.30;;;;;;4871909;29;20487;-80
2022/07/10 09:12:22;;;;;;;1.50;1.13;;;20.20;31.20;;;;;;4864667;29;20482;-81
2022/07/10 09:14:50;;;;;;;1.87;1.10;;;19.90;31.20;;;;;;4864191;29;20502;-80
2022/07/10 09:17:17;;;;;;;1.07;0.90;;;20.00;31.50;;;;;;4866857;29;20493;-79
2022/07/10 09:19:44;;;;;;;4.20;1.10;;;20.20;30.80;;;;;;4865264;29;20451;-79
2022/07/10 09:22:12;;;;;;;4.93;1.50;;;20.70;29.40;;;;;;4862188;29;20487;-80
2022/07/10 09:24:41;;;;;;;1.33;1.23;;;20.60;29.30;;;;;;4862829;29;20446;-81
2022/07/10 09:27:10;;;;;;;1.00;0.80;;;20.50;29.80;;;;;;4866918;29;20481;-79
2022/07/10 09:29:48;;;;;;;7.60;1.27;;;20.20;29.00;;;;;;4866318;29;20528;-80
2022/07/10 09:32:17;;;;;;;2.10;1.00;;;20.20;29.00;;;;;;4888093;23;20522;-82
2022/07/10 09:34:45;;;;;;;3.30;0.93;;;20.10;27.70;;;;;;4884862;29;20420;-81
2022/07/10 09:37:20;;;;;;;2.83;0.80;;;20.40;28.30;;;;;;4884656;29;20518;-82
2022/07/10 09:39:55;;;;;;;1.83;0.80;;;20.70;28.30;;;;;;4884216;29;20533;-82
2022/07/10 09:42:31;;;;;;;3.57;0.80;;;20.90;27.10;;;;;;4869445;29;20502;-81
2022/07/10 09:45:19;;;;;;;2.37;1.00;;;20.30;27.30;;;;;;4865103;29;20466;-81
2022/07/10 09:47:54;;;;;;;1.43;1.00;;;20.10;28.40;;;;;;4850796;29;20467;-82
2022/07/10 09:50:24;;;;;;;3.63;1.00;;;20.00;28.10;;;;;;4849072;29;20550;-81
2022/07/10 09:52:52;;;;;;;1.40;0.70;;;20.10;28.10;;;;;;4847807;29;20503;-82
2022/07/10 09:55:21;;;;;;;1.90;0.70;;;20.40;27.00;;;;;;4840419;29;20501;-80
2022/07/10 09:57:56;;;;;;;6.40;1.30;;;20.60;25.80;;;;;;4840946;29;20499;-80
2022/07/10 10:00:28;;;;;;;1.23;1.00;;;20.30;26.80;;;;;;4833892;29;20448;-82
2022/07/10 10:03:00;;;;;;;2.73;1.17;;;20.00;27.20;;;;;;4831344;29;20483;-82
2022/07/10 10:05:38;;;;;;;2.53;0.83;;;20.00;28.00;;;;;;4833323;29;20527;-86
2022/07/10 10:08:13;;;;;;;2.10;0.90;;;19.60;27.90;;;;;;4837137;29;20539;-83
2022/07/10 10:10:45;;;;;;;1.83;1.07;;;19.60;27.80;;;;;;4857703;29;20479;-85
2022/07/10 10:13:13;;;;;;;1.40;0.90;;;20.00;28.00;;;;;;4851218;29;20426;-84
2022/07/10 10:15:43;;;;;;;1.57;1.10;;;20.30;26.90;;;;;;4854711;29;20463;-82
2022/07/10 10:18:12;;;;;;;3.13;0.80;;;20.20;25.80;;;;;;4853431;29;20495;-80
2022/07/10 10:20:44;;;;;;;1.60;0.80;;;19.70;26.80;;;;;;4849882;29;20451;-79
2022/07/10 10:23:13;;;;;;;2.87;1.50;;;19.40;27.40;;;;;;4848806;29;20519;-83
2022/07/10 10:25:41;;;;;;;1.50;0.90;;;19.50;27.40;;;;;;4854027;29;20455;-81
2022/07/10 10:28:11;;;;;;;2.67;1.10;;;19.50;26.90;;;;;;4853108;29;21221;-78
2022/07/10 10:30:40;;;;;;;0.80;0.80;;;19.30;27.20;;;;;;4844825;29;20463;-76
2022/07/10 10:33:42;;;;;;;1.53;0.80;;;19.60;26.50;;;;;;4843339;29;20494;-76
2022/07/10 10:36:12;;;;;;;3.20;1.00;;;19.90;26.00;;;;;;4844124;29;20545;-76
2022/07/10 10:39:12;;;;;;;5.20;0.90;;;20.00;24.80;;;;;;4843785;29;20498;-76
2022/07/10 10:41:40;;;;;;;1.27;0.70;;;19.80;25.50;;;;;;4805387;29;20570;-76
2022/07/10 10:44:29;;;;;;;1.83;0.80;;;19.70;26.40;;;;;;4839288;29;20463;-75
2022/07/10 10:47:06;;;;;;;2.30;1.10;;;19.90;26.00;;;;;;4848739;29;20471;-77
2022/07/10 10:49:50;;;;;;;1.00;0.60;;;20.40;25.10;;;;;;4857037;29;20466;-76
2022/07/10 10:52:19;;;;;;;1.43;0.90;;;20.60;24.50;;;;;;4847597;29;20490;-77
2022/07/10 10:55:07;;;;;;;2.07;0.70;;;20.70;24.30;;;;;;4848092;29;20493;-78
2022/07/10 10:57:47;;;;;;;1.20;0.70;;;20.40;24.80;;;;;;4847146;29;20543;-77
2022/07/10 11:00:31;;;;;;;1.63;0.77;;;20.60;24.50;;;;;;4825434;29;20837;-77
2022/07/10 11:03:14;;;;;;;2.83;1.17;;;20.70;24.40;;;;;;4826185;29;20515;-77
2022/07/10 11:05:46;;;;;;;4.73;0.83;;;20.60;24.50;;;;;;4825701;29;20536;-74
2022/07/10 11:08:15;;;;;;;1.77;1.00;;;20.60;23.40;;;;;;4826351;29;20539;-74
2022/07/10 11:10:43;;;;;;;1.87;0.90;;;20.80;23.30;;;;;;4834263;29;20502;-79
2022/07/10 11:13:11;;;;;;;1.03;0.90;;;20.70;23.10;;;;;;4831199;29;20979;-76
2022/07/10 11:15:41;;;;;;;1.53;0.90;;;20.70;23.80;;;;;;4826687;29;20474;-76
2022/07/10 11:18:09;;;;;;;2.30;0.70;;;20.60;24.10;;;;;;4826240;29;20492;-76
2022/07/10 11:20:37;;;;;;;2.00;0.90;;;20.50;24.50;;;;;;4825142;29;20533;-75
2022/07/10 11:23:41;;;;;;;2.50;0.90;;;20.80;24.20;;;;;;4825254;29;20485;-75
2022/07/10 11:26:10;;;;;;;3.83;1.10;;;20.90;23.20;;;;;;4827924;29;20545;-76
2022/07/10 11:28:50;;;;;;;3.93;0.93;;;21.00;23.60;;;;;;4828135;29;20478;-74
2022/07/10 11:31:17;;;;;;;1.33;0.80;;;21.00;23.40;;;;;;4829084;29;20494;-75
2022/07/10 11:33:46;;;;;;;1.53;0.77;;;21.20;22.80;;;;;;4830286;29;20450;-75
2022/07/10 11:36:14;;;;;;;2.67;0.80;;;21.20;22.80;;;;;;4828937;29;20527;-75
2022/07/10 11:38:43;;;;;;;1.80;0.77;;;21.40;22.10;;;;;;4828619;29;20506;-75
2022/07/10 11:41:14;;;;;;;1.50;0.77;;;21.50;22.10;;;;;;4827909;29;20988;-75
2022/07/10 11:43:50;;;;;;;2.30;1.10;;;21.30;23.10;;;;;;4827742;29;20925;-76
2022/07/10 11:46:18;;;;;;;2.43;0.97;;;21.40;23.30;;;;;;4828714;29;20456;-75
2022/07/10 11:48:46;;;;;;;2.37;0.87;;;21.60;22.80;;;;;;4827711;29;20472;-75
2022/07/10 11:51:26;;;;;;;2.53;1.17;;;21.70;21.90;;;;;;4827321;29;20886;-76
2022/07/10 11:54:00;;;;;;;2.37;1.43;;;21.80;21.90;;;;;;4827584;29;20472;-75
2022/07/10 11:56:28;;;;;;;1.40;1.00;;;21.50;21.80;;;;;;4828032;29;20451;-75
2022/07/10 11:58:57;;;;;;;2.03;0.73;;;21.70;21.90;;;;;;4827940;29;20495;-74
2022/07/10 12:01:24;;;;;;;1.60;0.87;;;21.80;22.00;;;;;;4827970;29;20835;-75
2022/07/10 12:03:57;;;;;;;1.43;0.50;;;21.70;21.90;;;;;;4828545;29;20494;-75
2022/07/10 12:06:24;;;;;;;1.40;0.83;;;21.60;21.80;;;;;;4828773;29;20471;-78
2022/07/10 12:08:52;;;;;;;1.13;0.60;;;21.80;22.00;;;;;;4828662;29;20461;-75
2022/07/10 12:11:21;;;;;;;3.63;0.90;;;22.10;21.70;;;;;;4829146;29;20497;-75
2022/07/10 12:13:50;;;;;;;2.70;0.97;;;22.20;21.50;;;;;;4831661;29;20467;-76
2022/07/10 12:16:18;;;;;;;3.63;1.43;;;22.10;22.20;;;;;;4833179;29;20495;-75
2022/07/10 12:18:46;;;;;;;2.40;1.13;;;22.10;22.20;;;;;;4833311;29;21028;-76
2022/07/10 12:21:14;;;;;;;4.63;1.30;;;22.10;22.20;;;;;;4832313;29;20454;-78
2022/07/10 12:23:43;;;;;;;1.70;0.60;;;21.90;22.10;;;;;;4836152;29;20479;-77
2022/07/10 12:26:12;;;;;;;1.80;0.90;;;21.70;21.90;;;;;;4838061;29;20450;-77
2022/07/10 12:28:51;;;;;;;2.10;0.97;;;21.70;21.90;;;;;;4836941;29;20451;-78
2022/07/10 12:31:26;;;;;;;3.30;0.80;;;21.70;21.90;;;;;;4832594;29;21072;-77
2022/07/10 12:33:57;;;;;;;1.10;0.83;;;21.60;21.80;;;;;;4832234;29;20486;-77
2022/07/10 12:36:25;;;;;;;1.10;0.90;;;21.40;21.70;;;;;;4832100;29;20787;-78
2022/07/10 12:38:57;;;;;;;1.90;1.00;;;21.60;21.80;;;;;;4832691;29;20474;-76
2022/07/10 12:41:25;;;;;;;2.10;0.90;;;21.70;21.90;;;;;;4829268;29;20535;-75
2022/07/10 12:43:54;;;;;;;2.97;0.60;;;21.70;21.90;;;;;;4826016;29;20478;-77
2022/07/10 12:46:23;;;;;;;4.03;0.70;;;21.60;21.80;;;;;;4825522;29;20449;-76
2022/07/10 12:49:03;;;;;;;4.10;1.17;;;21.80;22.00;;;;;;4825630;29;20450;-76
2022/07/10 12:51:31;;;;;;;1.90;1.00;;;21.70;21.90;;;;;;4825215;29;21167;-75
2022/07/10 12:53:58;;;;;;;1.90;0.70;;;21.90;22.10;;;;;;4825825;29;20446;-75
2022/07/10 12:56:33;;;;;;;1.50;0.80;;;22.20;21.70;;;;;;4825510;29;20468;-76
2022/07/10 12:59:04;;;;;;;2.10;1.57;;;22.50;20.90;;;;;;4825727;29;20546;-76
2022/07/10 13:01:41;;;;;;;1.23;1.00;;;22.60;21.10;;;;;;4825210;29;21002;-76
2022/07/10 13:04:09;;;;;;;2.50;0.90;;;22.30;21.40;;;;;;4825595;29;20464;-76